Terminal Aerodrome Forecast
Issued by NWS Mt. Holly, NJ

Home | Current Version | Previous Version | Text Only | Print | Product List | Glossary On
Versions: 1 2 3 4 5 6 7 8 9 10 11 12 13 14 15 16 17 18 19 20 21 22 23 24
000
FTUS41 KPHI 201100
TAFPHL
TAF
KPHL 201130Z 2012/2118 VRB03KT 6SM HZ SCT025 BKN060
     FM201300 15007KT P6SM BKN035
     FM201700 19010KT P6SM BKN035
     FM210200 15005KT P6SM BKN025
     FM210500 VRB03KT P6SM OVC010
     FM211600 22006KT P6SM SCT015=

USA.gov is the U.S. government's official web portal to all federal, state and local government web resources and services.